Time;durP1;ratioP1;P1;durP2;ratioP2;P2;SDS_P1;SDS_P2;PMS_P1;PMS_P2;Temp;Humidity;BMP_temperature;BMP_pressure;BME280_temperature;BME280_humidity;BME280_pressure;Samples;Min_cycle;Max_cycle;Signal;HPM_P1;HPM_P2
2022/06/13 00:00:21;;;;;;;7.88;4.70;;;;;;;17.60;100.00;100075.53;4990356;28;20492;-68
2022/06/13 00:02:47;;;;;;;9.15;4.38;;;;;;;17.41;100.00;100105.06;4990525;28;20416;-65
2022/06/13 00:05:13;;;;;;;9.45;5.10;;;;;;;17.45;100.00;100101.59;4990675;28;20026;-68
2022/06/13 00:07:39;;;;;;;7.43;4.85;;;;;;;17.53;100.00;100115.53;4990593;28;20030;-68
2022/06/13 00:10:06;;;;;;;7.25;4.68;;;;;;;17.52;100.00;100103.38;4990315;28;20104;-67
2022/06/13 00:12:31;;;;;;;8.48;4.60;;;;;;;17.47;100.00;100107.72;4993501;28;20442;-68
2022/06/13 00:14:57;;;;;;;5.38;4.50;;;;;;;17.35;100.00;100060.69;5009466;28;20018;-68
2022/06/13 00:17:22;;;;;;;9.57;4.82;;;;;;;17.51;100.00;100087.69;5007483;28;20065;-71
2022/06/13 00:19:48;;;;;;;6.22;4.63;;;;;;;17.15;100.00;100064.09;5002861;28;20030;-66
2022/06/13 00:22:14;;;;;;;6.45;4.47;;;;;;;17.29;100.00;100088.50;5000580;28;20179;-67
2022/06/13 00:24:39;;;;;;;12.50;5.00;;;;;;;17.39;100.00;100092.00;5005003;28;20086;-69
2022/06/13 00:27:05;;;;;;;8.77;4.75;;;;;;;17.32;100.00;100094.59;5009888;28;20022;-69
2022/06/13 00:29:31;;;;;;;6.38;4.45;;;;;;;17.16;100.00;100078.91;5006318;28;20030;-68
2022/06/13 00:31:57;;;;;;;9.00;5.13;;;;;;;17.13;100.00;100084.97;5000257;28;20038;-66
2022/06/13 00:34:22;;;;;;;6.78;4.43;;;;;;;17.25;100.00;100088.50;5000573;28;20030;-67
2022/06/13 00:36:48;;;;;;;7.30;4.70;;;;;;;17.25;100.00;100080.66;4998771;28;20416;-68
2022/06/13 00:39:14;;;;;;;8.48;4.70;;;;;;;17.07;100.00;100084.06;4993272;28;20093;-68
2022/06/13 00:41:41;;;;;;;6.30;4.38;;;;;;;17.03;100.00;100064.91;4990082;28;20113;-67
2022/06/13 00:44:24;;;;;;;8.93;5.05;;;;;;;17.03;100.00;100061.47;4989743;28;20038;-68
2022/06/13 00:46:51;;;;;;;9.32;5.13;;;;;;;17.20;100.00;100080.66;4989865;28;20485;-69
2022/06/13 00:49:38;;;;;;;6.47;4.75;;;;;;;17.13;100.00;100052.78;4989911;28;20489;-69
2022/06/13 00:52:13;;;;;;;10.77;4.85;;;;;;;17.35;100.00;100084.19;4989357;28;20117;-67
2022/06/13 00:54:41;;;;;;;8.57;4.68;;;;;;;17.36;100.00;100078.97;4989368;28;20031;-67
2022/06/13 00:57:12;;;;;;;8.10;4.45;;;;;;;17.49;100.00;100089.44;5009484;28;20116;-69
2022/06/13 00:59:39;;;;;;;10.60;5.07;;;;;;;17.54;100.00;100065.06;5029771;28;20037;-67
2022/06/13 01:02:06;;;;;;;8.00;4.60;;;;;;;17.67;100.00;100081.63;5029628;28;20038;-65
2022/06/13 01:04:32;;;;;;;7.03;4.80;;;;;;;17.77;100.00;100082.53;5043939;28;20096;-69
2022/06/13 01:07:00;;;;;;;6.90;4.45;;;;;;;17.71;100.00;100086.00;5004532;28;20018;-65
2022/06/13 01:12:17;;;;;;;9.75;4.82;;;;;;;17.55;100.00;100072.03;5011038;28;20512;-68
2022/06/13 01:15:12;;;;;;;10.70;4.70;;;;;;;17.50;100.00;100068.56;4991361;28;20047;-66
2022/06/13 01:17:43;;;;;;;8.30;4.45;;;;;;;17.30;100.00;100071.13;5010928;28;20038;-66
2022/06/13 01:20:14;;;;;;;7.03;4.43;;;;;;;17.22;100.00;100070.22;5010990;28;20117;-69
2022/06/13 01:22:50;;;;;;;6.45;5.10;;;;;;;17.14;100.00;100062.38;5010962;28;20038;-65
2022/06/13 01:25:52;;;;;;;12.77;4.72;;;;;;;17.11;100.00;100070.19;5010828;28;20674;-69
2022/06/13 01:28:46;;;;;;;10.98;5.60;;;;;;;17.12;100.00;100070.19;5010818;28;20094;-68
2022/06/13 01:31:16;;;;;;;8.25;4.65;;;;;;;17.20;100.00;100069.34;5010613;28;20038;-68
2022/06/13 01:33:54;;;;;;;9.88;5.20;;;;;;;17.37;100.00;100069.38;5010690;28;20524;-65
2022/06/13 01:36:57;;;;;;;6.82;4.72;;;;;;;17.38;100.00;100073.75;5010586;28;20519;-68
2022/06/13 01:39:40;;;;;;;6.35;4.63;;;;;;;17.23;100.00;100071.94;4994449;28;20137;-65
2022/06/13 01:42:18;;;;;;;7.63;4.72;;;;;;;17.07;100.00;100073.63;5010485;28;20033;-71
2022/06/13 01:45:03;;;;;;;7.95;4.65;;;;;;;16.94;100.00;100065.75;5010446;28;20598;-70
2022/06/13 01:47:51;;;;;;;14.18;5.45;;;;;;;17.02;100.00;100070.13;5010391;28;20040;-69
2022/06/13 01:50:42;;;;;;;7.53;5.00;;;;;;;17.04;100.00;100068.41;5030623;28;20041;-68
2022/06/13 01:53:28;;;;;;;10.07;5.28;;;;;;;16.92;100.00;100072.72;5032692;28;20081;-68
2022/06/13 01:56:00;;;;;;;7.03;5.45;;;;;;;16.86;100.00;100076.97;5032738;28;20053;-66
2022/06/13 01:58:31;;;;;;;7.55;5.13;;;;;;;16.87;100.00;100076.97;5032556;28;20452;-65
2022/06/13 02:01:18;;;;;;;6.75;4.78;;;;;;;16.93;100.00;100078.78;5032795;28;20086;-70
2022/06/13 02:04:00;;;;;;;9.25;5.47;;;;;;;16.72;100.00;100061.28;5032673;28;20053;-68
2022/06/13 02:06:31;;;;;;;9.25;5.43;;;;;;;16.89;100.00;100084.84;5031370;28;20392;-65
2022/06/13 02:09:10;;;;;;;8.15;5.30;;;;;;;16.77;100.00;100083.03;5018475;28;20033;-66
2022/06/13 02:11:38;;;;;;;7.35;4.88;;;;;;;16.76;100.00;100089.09;5032619;28;20112;-65
2022/06/13 02:14:24;;;;;;;11.32;6.18;;;;;;;16.53;100.00;100081.16;5032285;28;20063;-69
2022/06/13 02:16:57;;;;;;;7.55;5.20;;;;;;;16.55;100.00;100092.44;5031955;28;20841;-69
2022/06/13 02:19:28;;;;;;;12.55;5.57;;;;;;;16.51;100.00;100099.41;5029801;28;20124;-65
2022/06/13 02:21:59;;;;;;;8.20;5.05;;;;;;;16.20;100.00;100060.09;5022534;28;20116;-68
2022/06/13 02:24:33;;;;;;;10.82;5.47;;;;;;;16.49;100.00;100095.91;5032223;28;20025;-64
2022/06/13 02:27:01;;;;;;;9.60;5.65;;;;;;;16.55;100.00;100095.06;5032101;28;20058;-69
2022/06/13 02:29:35;;;;;;;9.80;5.47;;;;;;;16.47;100.00;100095.91;5031740;28;20376;-69
2022/06/13 02:32:32;;;;;;;9.18;5.75;;;;;;;16.43;100.00;100107.13;5032167;28;20037;-68
2022/06/13 02:35:04;;;;;;;9.63;5.88;;;;;;;16.41;100.00;100100.19;4999081;28;20050;-65
2022/06/13 02:37:37;;;;;;;9.70;6.05;;;;;;;16.41;100.00;100097.56;4989843;28;20026;-65
2022/06/13 02:40:20;;;;;;;7.75;5.90;;;;;;;16.43;100.00;100107.13;5009216;28;20062;-70
2022/06/13 02:42:58;;;;;;;7.85;6.00;;;;;;;16.50;100.00;100098.50;5009467;28;20026;-69
2022/06/13 02:46:06;;;;;;;10.70;6.30;;;;;;;16.53;100.00;100107.22;5009458;28;20804;-65
2022/06/13 02:48:47;;;;;;;22.00;5.72;;;;;;;16.42;100.00;100114.94;4970293;28;20057;-68
2022/06/13 02:51:38;;;;;;;12.82;6.38;;;;;;;16.55;100.00;100113.28;4970567;28;20039;-69
2022/06/13 02:54:31;;;;;;;10.45;5.65;;;;;;;16.44;100.00;100080.22;4966695;28;20049;-68
2022/06/13 02:57:24;;;;;;;9.70;6.07;;;;;;;16.41;100.00;100082.81;4970389;28;20162;-69
2022/06/13 03:00:05;;;;;;;11.00;5.82;;;;;;;16.60;100.00;100114.22;4970003;28;20039;-69
2022/06/13 03:02:54;;;;;;;12.18;6.68;;;;;;;16.50;100.00;100111.53;4970370;28;20073;-68
2022/06/13 03:05:58;;;;;;;11.13;6.22;;;;;;;15.94;100.00;100023.47;4970149;28;20093;-68
2022/06/13 03:08:32;;;;;;;16.13;7.25;;;;;;;16.46;100.00;100108.88;4880694;29;20496;-68
2022/06/13 03:11:16;;;;;;;10.32;6.20;;;;;;;16.50;100.00;100108.06;4874506;29;20104;-66
2022/06/13 03:13:41;;;;;;;13.50;6.55;;;;;;;16.56;100.00;100121.16;4880756;29;20514;-66
2022/06/13 03:16:23;;;;;;;9.77;5.88;;;;;;;16.62;100.00;100107.25;4893445;29;20108;-70
2022/06/13 03:18:55;;;;;;;11.93;6.40;;;;;;;16.63;100.00;100106.41;4893541;29;20535;-68
2022/06/13 03:21:33;;;;;;;6.78;5.65;;;;;;;16.72;100.00;100109.06;4893577;29;20032;-68
2022/06/13 03:24:24;;;;;;;11.00;6.25;;;;;;;16.82;100.00;100113.47;4918354;29;20177;-68
2022/06/13 03:26:59;;;;;;;14.48;6.45;;;;;;;16.77;100.00;100103.88;4950562;29;20488;-70
2022/06/13 03:29:34;;;;;;;9.50;5.93;;;;;;;16.84;100.00;100121.31;4950406;29;20038;-65
2022/06/13 03:32:09;;;;;;;10.48;6.60;;;;;;;16.85;100.00;100119.56;4949755;28;20035;-65
2022/06/13 03:34:40;;;;;;;8.73;5.95;;;;;;;16.95;100.00;100118.78;4948518;29;20039;-69
2022/06/13 03:37:26;;;;;;;12.05;6.13;;;;;;;16.79;100.00;100082.16;4943974;29;20580;-68
2022/06/13 03:40:18;;;;;;;10.40;7.68;;;;;;;17.04;100.00;100123.19;4950297;29;20135;-68
2022/06/13 03:42:55;;;;;;;10.65;6.97;;;;;;;16.97;100.00;100115.34;4950142;29;20039;-69
2022/06/13 03:45:31;;;;;;;10.93;6.88;;;;;;;17.05;100.00;100117.13;5019643;28;20116;-68
2022/06/13 03:48:05;;;;;;;11.88;7.57;;;;;;;17.00;100.00;100084.91;5029344;28;20037;-69
2022/06/13 03:50:41;;;;;;;8.68;6.85;;;;;;;17.15;100.00;100111.06;5030724;28;20036;-69
2022/06/13 03:53:27;;;;;;;11.05;6.60;;;;;;;17.18;100.00;100118.03;5030406;28;20038;-68
2022/06/13 03:56:18;;;;;;;9.82;7.10;;;;;;;17.24;100.00;100112.84;5030318;28;20496;-68
2022/06/13 03:58:55;;;;;;;9.85;6.45;;;;;;;17.24;100.00;100121.53;5030280;28;20029;-69
2022/06/13 04:01:32;;;;;;;10.07;7.10;;;;;;;17.33;100.00;100125.03;5028656;28;20045;-68
2022/06/13 04:04:00;;;;;;;15.40;7.47;;;;;;;17.39;100.00;100101.56;5030342;28;20128;-68
2022/06/13 04:06:38;;;;;;;11.98;7.90;;;;;;;17.57;100.00;100122.50;5030328;28;20020;-67
2022/06/13 04:09:14;;;;;;;12.80;7.75;;;;;;;17.66;100.00;100128.59;5000801;28;20045;-66
2022/06/13 04:12:16;;;;;;;9.25;7.03;;;;;;;17.74;100.00;100124.28;5023569;28;20056;-66
2022/06/13 04:15:00;;;;;;;10.23;6.65;;;;;;;17.85;100.00;100124.31;5012415;28;20029;-66
2022/06/13 04:18:00;;;;;;;9.93;7.25;;;;;;;17.91;100.00;100114.72;5030125;28;20078;-68
2022/06/13 04:20:33;;;;;;;12.45;7.45;;;;;;;17.94;100.00;100111.28;5030078;28;20037;-66
2022/06/13 04:23:07;;;;;;;12.30;7.70;;;;;;;18.03;100.00;100115.66;5030163;28;20554;-68
2022/06/13 04:25:53;;;;;;;12.15;7.57;;;;;;;18.13;100.00;100112.19;5030033;28;20488;-68
2022/06/13 04:28:30;;;;;;;13.73;7.38;;;;;;;18.25;100.00;100117.38;5029903;28;20042;-68
2022/06/13 04:30:59;;;;;;;11.95;7.63;;;;;;;18.35;100.00;100115.63;5030089;28;20076;-69
2022/06/13 04:33:43;;;;;;;14.13;8.27;;;;;;;18.38;100.00;100118.28;5029953;28;20057;-65
2022/06/13 04:36:12;;;;;;;12.40;7.85;;;;;;;18.40;100.00;100110.41;5029912;28;20408;-69
2022/06/13 04:38:41;;;;;;;9.85;7.63;;;;;;;18.45;100.00;100113.88;5030086;28;20141;-68
2022/06/13 04:41:10;;;;;;;11.38;7.40;;;;;;;18.65;100.00;100128.69;5030112;28;20400;-70
2022/06/13 04:43:41;;;;;;;14.85;7.68;;;;;;;18.71;100.00;100131.28;5030166;28;20132;-68
2022/06/13 04:46:28;;;;;;;8.43;6.88;;;;;;;18.74;100.00;100131.28;5034115;28;20025;-70
2022/06/13 04:48:57;;;;;;;8.50;7.32;;;;;;;18.82;100.00;100126.03;5034338;28;20079;-69
2022/06/13 04:51:31;;;;;;;9.02;7.18;;;;;;;18.94;100.00;100123.44;5033759;28;20036;-67
2022/06/13 04:54:26;;;;;;;12.07;7.72;;;;;;;19.09;100.00;100135.59;5033793;28;20065;-68
2022/06/13 04:56:57;;;;;;;9.90;7.88;;;;;;;19.17;100.00;100133.78;5033412;28;20065;-70
2022/06/13 04:59:22;;;;;;;10.60;6.95;;;;;;;19.27;100.00;100118.06;5033447;28;20544;-67
2022/06/13 05:01:50;;;;;;;8.07;7.28;;;;;;;19.43;100.00;100129.31;5033559;28;20104;-69
2022/06/13 05:04:29;;;;;;;11.30;7.70;;;;;;;19.43;100.00;100121.47;5034045;28;20040;-65
2022/06/13 05:07:08;;;;;;;11.35;8.07;;;;;;;19.54;100.00;100133.63;5031092;28;20030;-68
2022/06/13 05:09:37;;;;;;;14.95;7.90;;;;;;;19.59;100.00;100127.50;5024486;28;20408;-68
2022/06/13 05:12:26;;;;;;;8.23;7.25;;;;;;;19.65;100.00;100124.84;5033457;28;20034;-65
2022/06/13 05:15:01;;;;;;;11.77;7.32;;;;;;;19.85;100.00;100120.38;5032303;28;20403;-65
2022/06/13 05:17:33;;;;;;;9.45;7.13;;;;;;;19.97;100.00;100118.56;5033502;28;20026;-68
2022/06/13 05:20:10;;;;;;;9.55;7.18;;;;;;;20.01;100.00;100125.50;5033406;28;20108;-68
2022/06/13 05:23:02;;;;;;;10.13;7.07;;;;;;;19.96;100.00;100106.34;5033216;28;20033;-66
2022/06/13 05:25:30;;;;;;;10.25;6.90;;;;;;;20.27;100.00;100112.19;5021405;28;20029;-68
2022/06/13 05:27:55;;;;;;;15.13;6.60;;;;;;;20.32;100.00;100109.53;5025549;28;20041;-68
2022/06/13 05:30:22;;;;;;;7.68;6.70;;;;;;;20.58;100.00;100132.88;5029994;28;20074;-68
2022/06/13 05:32:48;;;;;;;8.75;6.70;;;;;;;20.64;100.00;100129.34;5005280;28;20026;-67
2022/06/13 05:35:19;;;;;;;10.57;6.90;;;;;;;20.74;100.00;100128.41;5023014;28;20504;-68
2022/06/13 05:37:45;;;;;;;11.48;7.40;;;;;;;20.81;100.00;100121.31;5031893;28;20042;-65
2022/06/13 05:40:17;;;;;;;8.30;6.30;;;;;;;20.92;100.00;100127.34;5033322;28;20040;-68
2022/06/13 05:42:43;;;;;;;8.65;7.13;;;;;;;21.06;100.00;100134.16;5032872;28;20030;-65
2022/06/13 05:45:15;;;;;;;9.27;7.00;;;;;;;21.18;100.00;100126.16;5033077;28;20044;-68
2022/06/13 05:47:42;;;;;;;8.07;6.50;;;;;;;20.92;100.00;100064.38;5032551;28;20025;-68
2022/06/13 05:50:23;;;;;;;6.35;5.40;;;;;;;21.55;100.00;100127.44;5033023;28;20100;-69
2022/06/13 05:52:49;;;;;;;9.02;6.20;;;;;;;21.41;100.00;100104.84;5032517;28;20456;-69
2022/06/13 05:55:14;;;;;;;7.95;5.85;;;;;;;21.62;100.00;100134.34;5032037;28;20151;-72
2022/06/13 05:57:40;;;;;;;9.50;5.95;;;;;;;21.53;100.00;100100.31;5032188;28;20132;-69
2022/06/13 06:00:14;;;;;;;9.55;6.40;;;;;;;21.75;100.00;100135.06;5032173;28;20030;-68
2022/06/13 06:02:40;;;;;;;9.88;6.32;;;;;;;21.78;100.00;100133.25;5032219;28;20480;-66
2022/06/13 06:05:06;;;;;;;8.88;5.60;;;;;;;21.87;100.00;100131.38;5027397;28;20030;-68
2022/06/13 06:07:33;;;;;;;7.32;5.20;;;;;;;22.10;100.00;100134.50;5016793;28;20040;-68
2022/06/13 06:10:00;;;;;;;6.10;5.30;;;;;;;22.17;100.00;100132.66;5026684;28;20090;-68
2022/06/13 06:12:26;;;;;;;7.93;5.00;;;;;;;22.13;100.00;100130.97;5046117;28;20033;-66
2022/06/13 06:14:52;;;;;;;7.95;5.40;;;;;;;22.14;100.00;100137.97;5032521;28;20044;-69
2022/06/13 06:17:18;;;;;;;8.63;5.07;;;;;;;22.19;100.00;100135.25;5031057;28;20047;-68
2022/06/13 06:19:43;;;;;;;5.53;4.90;;;;;;;22.21;100.00;100133.50;5032348;28;20026;-69
2022/06/13 06:22:08;;;;;;;10.75;5.60;;;;;;;22.09;100.00;100113.50;5032299;28;20037;-67
2022/06/13 06:24:34;;;;;;;8.55;5.40;;;;;;;22.36;100.00;100142.88;5032069;28;20040;-68
2022/06/13 06:27:01;;;;;;;8.65;5.00;;;;;;;22.35;100.00;100120.94;5029953;28;20029;-68
2022/06/13 06:29:26;;;;;;;7.47;5.20;;;;;;;22.48;98.52;100147.97;5032823;28;20049;-69
2022/06/13 06:31:51;;;;;;;8.52;5.28;;;;;;;22.42;97.03;100140.19;5006080;28;20026;-65
2022/06/13 06:34:17;;;;;;;7.15;4.80;;;;;;;22.43;97.84;100155.94;5028911;28;20041;-69
2022/06/13 06:36:43;;;;;;;8.40;4.32;;;;;;;22.55;99.66;100157.47;5031852;28;20045;-66
2022/06/13 06:39:08;;;;;;;10.10;5.20;;;;;;;22.50;100.00;100158.44;5046200;28;20484;-65
2022/06/13 06:41:34;;;;;;;5.82;4.43;;;;;;;22.45;100.00;100138.38;5031950;28;20452;-69
2022/06/13 06:44:00;;;;;;;6.25;4.90;;;;;;;22.48;100.00;100163.75;5031972;28;20026;-68
2022/06/13 06:46:25;;;;;;;10.43;4.78;;;;;;;22.40;100.00;100163.00;5032044;28;20104;-68
2022/06/13 06:48:51;;;;;;;7.65;4.63;;;;;;;22.17;100.00;100114.25;5031559;28;20033;-66
2022/06/13 06:51:17;;;;;;;8.07;5.25;;;;;;;22.36;100.00;100135.84;5032002;28;20460;-69
2022/06/13 07:01:55;;;;;;;8.20;5.68;;;;;;;22.32;100.00;100151.69;5031631;28;20577;-68
2022/06/13 07:04:20;;;;;;;8.35;4.68;;;;;;;22.50;100.00;100172.47;5031880;28;20022;-68
2022/06/13 07:06:45;;;;;;;7.28;4.97;;;;;;;22.50;100.00;100175.09;5029709;28;20088;-67
2022/06/13 07:09:11;;;;;;;7.60;5.43;;;;;;;22.37;98.61;100158.66;5018965;28;20021;-72
2022/06/13 07:11:56;;;;;;;9.10;5.10;;;;;;;22.42;99.34;100172.59;5015027;28;20133;-67
2022/06/13 07:14:25;;;;;;;8.70;4.70;;;;;;;22.39;98.67;100180.56;5008073;28;20032;-68
2022/06/13 07:16:51;;;;;;;7.55;4.88;;;;;;;22.34;98.92;100190.22;5031124;28;20033;-64
2022/06/13 07:19:17;;;;;;;5.97;4.40;;;;;;;22.28;95.38;100172.81;5031326;28;20033;-69
2022/06/13 07:21:43;;;;;;;8.65;4.20;;;;;;;22.29;95.59;100184.16;5016908;28;20029;-70
2022/06/13 07:24:09;;;;;;;8.20;4.30;;;;;;;22.24;96.02;100186.91;5011545;28;20431;-68
2022/06/13 07:26:36;;;;;;;8.18;4.75;;;;;;;22.26;96.48;100185.09;5011718;28;20037;-69
2022/06/13 07:29:02;;;;;;;7.03;5.60;;;;;;;22.27;96.46;100191.25;5011600;28;20084;-72
2022/06/13 07:31:40;;;;;;;5.47;3.83;;;;;;;22.26;95.29;100185.09;5011210;28;20030;-69
2022/06/13 07:34:11;;;;;;;8.30;5.53;;;;;;;22.25;97.06;100185.13;5011532;28;20033;-69
2022/06/13 07:36:36;;;;;;;20.15;7.50;;;;;;;22.43;98.23;100192.75;4993726;28;20139;-69
2022/06/13 07:39:02;;;;;;;17.38;6.00;;;;;;;22.56;96.53;100193.41;4991948;28;20026;-69
2022/06/13 07:41:28;;;;;;;34.63;10.05;;;;;;;22.67;96.55;100201.13;4997602;28;20030;-67
2022/06/13 07:43:56;;;;;;;9.00;4.47;;;;;;;22.75;93.53;100198.34;5002241;28;20026;-67
2022/06/13 07:46:26;;;;;;;10.73;4.85;;;;;;;22.86;95.43;100221.84;5000914;28;20033;-66
2022/06/13 07:48:52;;;;;;;8.27;6.15;;;;;;;22.75;93.25;100179.94;5002116;28;20042;-69
2022/06/13 07:51:18;;;;;;;8.20;4.47;;;;;;;23.14;95.40;100202.91;5000764;28;20480;-68
2022/06/13 07:53:44;;;;;;;5.43;4.30;;;;;;;23.38;92.00;100218.25;5006570;28;20021;-66
2022/06/13 07:56:13;;;;;;;7.00;4.88;;;;;;;23.25;93.45;100199.22;4999081;28;20029;-68
2022/06/13 07:58:42;;;;;;;7.40;4.43;;;;;;;23.38;92.11;100206.88;5001864;28;20549;-68
2022/06/13 08:01:09;;;;;;;6.50;4.97;;;;;;;23.59;92.96;100221.38;5000455;28;20113;-67
2022/06/13 08:03:35;;;;;;;7.07;4.50;;;;;;;23.73;91.39;100227.19;5000359;28;20022;-69
2022/06/13 08:06:01;;;;;;;8.88;4.40;;;;;;;23.84;92.21;100228.72;5001774;28;20029;-68
2022/06/13 08:08:27;;;;;;;5.97;4.53;;;;;;;23.92;90.84;100225.97;5000429;28;20033;-67
2022/06/13 08:10:55;;;;;;;5.85;4.57;;;;;;;24.01;89.59;100233.66;5004838;28;20033;-66
2022/06/13 08:13:22;;;;;;;9.45;7.70;;;;;;;24.14;88.22;100231.59;5004975;28;20173;-70
2022/06/13 08:15:48;;;;;;;7.85;4.25;;;;;;;24.22;87.14;100235.81;5005021;28;20026;-65
2022/06/13 08:18:14;;;;;;;7.28;5.00;;;;;;;24.26;89.63;100228.69;5006685;28;20036;-66
2022/06/13 08:20:42;;;;;;;8.52;4.32;;;;;;;24.35;91.13;100239.03;5003656;28;20037;-67
2022/06/13 08:23:10;;;;;;;6.75;4.40;;;;;;;24.42;87.65;100241.53;5001085;28;20160;-65
2022/06/13 08:25:37;;;;;;;6.10;4.77;;;;;;;24.43;87.28;100237.97;5002967;28;21470;-64
2022/06/13 08:28:04;;;;;;;9.20;5.40;;;;;;;24.44;92.75;100229.16;5005761;28;20049;-65
2022/06/13 08:30:44;;;;;;;5.10;4.25;;;;;;;24.47;88.64;100218.53;5001835;28;20034;-63
2022/06/13 08:33:09;;;;;;;8.82;7.93;;;;;;;24.54;85.84;100220.97;5000862;28;20484;-63
2022/06/13 08:35:35;;;;;;;7.25;5.63;;;;;;;24.43;87.85;100220.38;5003842;28;20113;-64
2022/06/13 08:38:03;;;;;;;7.90;4.50;;;;;;;24.31;87.07;100218.03;5001066;28;20060;-66
2022/06/13 08:40:41;;;;;;;5.30;3.65;;;;;;;24.28;86.61;100221.59;5000125;28;20492;-65
2022/06/13 08:43:26;;;;;;;6.50;4.53;;;;;;;24.14;88.59;100200.84;5000051;28;20373;-67
2022/06/13 08:46:01;;;;;;;8.75;5.78;;;;;;;24.51;90.53;100225.44;5001357;28;20026;-64
2022/06/13 08:48:40;;;;;;;8.98;5.00;;;;;;;24.58;85.47;100219.13;5003105;28;20061;-67
2022/06/13 08:51:16;;;;;;;8.85;5.25;;;;;;;24.73;89.37;100224.97;5007277;28;20034;-69
2022/06/13 08:53:54;;;;;;;6.97;4.75;;;;;;;24.93;87.79;100222.66;5001070;28;20033;-64
2022/06/13 08:56:22;;;;;;;6.55;4.68;;;;;;;24.97;87.66;100219.03;5004636;28;20407;-67
2022/06/13 08:59:23;;;;;;;8.77;4.93;;;;;;;24.83;86.65;100206.19;5005837;28;20469;-64
2022/06/13 09:02:02;;;;;;;7.55;4.82;;;;;;;24.84;88.88;100204.41;5005187;28;20030;-67
2022/06/13 09:04:37;;;;;;;6.22;4.55;;;;;;;24.98;84.41;100201.41;5006379;28;20025;-67
2022/06/13 09:07:21;;;;;;;6.32;5.05;;;;;;;25.06;84.80;100194.16;5003417;28;20447;-65
2022/06/13 09:10:00;;;;;;;7.20;4.53;;;;;;;25.15;85.98;100193.03;5008513;28;20041;-68
2022/06/13 09:12:47;;;;;;;7.80;4.95;;;;;;;25.39;86.74;100203.84;5007691;28;20022;-68
2022/06/13 09:15:15;;;;;;;12.77;5.32;;;;;;;25.45;87.85;100204.53;5009069;28;20021;-66
2022/06/13 09:17:41;;;;;;;6.93;5.22;;;;;;;25.58;87.11;100210.31;5009398;28;20480;-70
2022/06/13 09:20:07;;;;;;;8.05;6.38;;;;;;;25.66;86.88;100208.31;5009690;28;20044;-67
2022/06/13 09:22:32;;;;;;;42.28;39.83;;;;;;;25.52;81.20;100210.47;5009102;28;20507;-65
2022/06/13 09:25:24;;;;;;;21.38;20.02;;;;;;;25.65;87.29;100209.22;5008015;28;20068;-70
2022/06/13 09:27:54;;;;;;;53.88;51.05;;;;;;;25.62;84.68;100201.38;5001276;28;20036;-66
2022/06/13 09:30:35;;;;;;;57.85;54.65;;;;;;;25.79;81.76;100189.44;5008017;28;20021;-66
2022/06/13 09:33:07;;;;;;;58.33;54.83;;;;;;;25.66;80.63;100187.16;5011435;28;20042;-68
2022/06/13 09:35:42;;;;;;;38.33;36.10;;;;;;;25.97;83.46;100198.56;5012593;28;20046;-65
2022/06/13 09:38:40;;;;;;;47.25;44.47;;;;;;;25.92;78.93;100163.44;5012916;28;20025;-68
2022/06/13 09:41:35;;;;;;;9.75;5.65;;;;;;;26.12;79.65;100190.19;4970870;28;20039;-66
2022/06/13 09:44:29;;;;;;;8.25;5.30;;;;;;;26.15;82.14;100199.81;4875799;29;20132;-68
2022/06/13 09:47:04;;;;;;;6.07;4.60;;;;;;;25.81;80.93;100196.41;4875787;29;20037;-68
2022/06/13 09:49:49;;;;;;;5.20;4.45;;;;;;;25.55;80.13;100191.91;4875879;29;20453;-69
2022/06/13 09:52:37;;;;;;;7.18;5.05;;;;;;;25.58;82.60;100190.94;4875853;29;20083;-68
2022/06/13 09:55:25;;;;;;;8.18;5.38;;;;;;;25.73;83.35;100195.75;4875592;29;20033;-65
2022/06/13 09:58:09;;;;;;;5.75;4.30;;;;;;;26.00;79.61;100179.97;4875620;29;20097;-68
2022/06/13 10:00:40;;;;;;;5.65;4.70;;;;;;;26.24;81.57;100177.47;4875587;29;20037;-67
2022/06/13 10:03:21;;;;;;;7.85;4.50;;;;;;;26.41;78.57;100187.50;4875665;29;20033;-65
2022/06/13 10:05:56;;;;;;;15.93;7.18;;;;;;;26.58;77.32;100182.50;4872599;29;20116;-68
2022/06/13 10:08:27;;;;;;;12.57;6.28;;;;;;;26.80;79.13;100187.06;4875548;29;20041;-66
2022/06/13 10:11:30;;;;;;;9.73;5.90;;;;;;;27.08;76.53;100181.66;4875491;29;20041;-65
2022/06/13 10:14:18;;;;;;;6.82;5.18;;;;;;;27.15;76.38;100177.00;4856969;29;20066;-68
2022/06/13 10:16:59;;;;;;;7.38;4.90;;;;;;;27.13;75.94;100149.72;4862938;29;20269;-66
2022/06/13 10:19:46;;;;;;;5.80;4.57;;;;;;;27.08;75.29;100181.66;4897195;28;20032;-66
2022/06/13 10:22:18;;;;;;;7.65;4.47;;;;;;;27.00;73.78;100172.25;4969427;28;20031;-69
2022/06/13 10:25:02;;;;;;;6.57;4.57;;;;;;;26.81;76.12;100178.22;4968010;28;20409;-68
2022/06/13 10:27:43;;;;;;;8.82;4.80;;;;;;;26.80;75.04;100180.00;4968656;28;20034;-67
2022/06/13 10:30:20;;;;;;;7.28;5.05;;;;;;;27.20;74.25;100177.69;4968727;28;20046;-65
2022/06/13 10:32:48;;;;;;;8.43;4.82;;;;;;;27.38;76.59;100185.91;4968101;28;20559;-67
2022/06/13 10:35:46;;;;;;;6.60;4.65;;;;;;;26.98;73.91;100187.34;4969959;28;20057;-67
2022/06/13 10:38:14;;;;;;;8.02;4.97;;;;;;;26.59;76.50;100181.59;4931767;29;20039;-66
2022/06/13 10:40:41;;;;;;;6.47;4.85;;;;;;;26.48;78.14;100176.66;4932136;29;20032;-70
2022/06/13 10:43:07;;;;;;;5.95;4.80;;;;;;;26.52;78.96;100188.00;4931156;29;20045;-68
2022/06/13 10:45:34;;;;;;;5.85;4.80;;;;;;;26.44;77.16;100179.44;4931755;29;20063;-66
2022/06/13 10:48:23;;;;;;;6.55;4.38;;;;;;;26.30;77.27;100188.69;4931766;29;20035;-68
2022/06/13 10:50:56;;;;;;;5.82;5.00;;;;;;;26.41;77.97;100187.50;4900822;29;20043;-67
2022/06/13 10:53:39;;;;;;;7.63;5.43;;;;;;;26.39;77.85;100192.81;4921067;29;20032;-67
2022/06/13 10:56:20;;;;;;;8.15;4.97;;;;;;;26.65;77.24;100188.44;4919277;29;20040;-68
2022/06/13 10:58:51;;;;;;;11.18;5.28;;;;;;;26.85;79.99;100190.41;4918858;29;20043;-65
2022/06/13 11:01:22;;;;;;;9.73;5.10;;;;;;;26.98;76.13;100187.34;4915511;29;20060;-69
2022/06/13 11:04:01;;;;;;;7.43;5.03;;;;;;;27.20;76.28;100182.97;4912908;29;20418;-71
2022/06/13 11:06:42;;;;;;;9.23;5.32;;;;;;;27.03;72.67;100178.31;4912984;29;20039;-68
2022/06/13 11:09:38;;;;;;;7.43;4.95;;;;;;;26.79;73.65;100169.44;4883469;29;20040;-66
2022/06/13 11:12:23;;;;;;;8.27;5.22;;;;;;;26.62;73.46;100177.97;4921655;29;20095;-66
2022/06/13 11:23:17;;;;;;;8.55;5.90;;;;;;;26.53;75.41;100165.91;4938837;29;20043;-67
2022/06/13 11:25:43;;;;;;;7.90;5.97;;;;;;;26.62;74.79;100170.03;4940228;29;20023;-64
2022/06/13 11:28:12;;;;;;;7.70;4.93;;;;;;;26.46;75.84;100140.56;4980070;28;20452;-67
2022/06/13 11:30:47;;;;;;;7.30;5.22;;;;;;;26.71;74.30;100163.53;5001046;28;20038;-67
2022/06/13 11:33:13;;;;;;;7.03;5.55;;;;;;;26.74;74.53;100160.81;5000152;28;20041;-66
2022/06/13 11:35:44;;;;;;;7.70;5.97;;;;;;;26.75;75.79;100158.09;5001950;28;20046;-67
2022/06/13 11:38:29;;;;;;;22.83;8.95;;;;;;;26.70;76.29;100160.00;5001300;28;20089;-64
2022/06/13 11:41:06;;;;;;;7.68;5.70;;;;;;;26.73;74.72;100153.75;4999697;28;20034;-68
2022/06/13 11:43:42;;;;;;;20.42;9.35;;;;;;;26.72;76.00;100146.75;4991346;28;20447;-69
2022/06/13 11:46:30;;;;;;;30.92;11.35;;;;;;;26.82;75.14;100153.47;4991529;28;20132;-69
2022/06/13 11:49:17;;;;;;;17.75;7.07;;;;;;;26.80;73.30;100147.34;5001646;28;20030;-68
2022/06/13 11:52:09;;;;;;;11.95;7.05;;;;;;;26.82;74.29;100153.47;4977068;28;20038;-69
2022/06/13 11:54:47;;;;;;;9.38;6.20;;;;;;;26.90;74.08;100150.53;4979129;28;20038;-67
2022/06/13 11:57:18;;;;;;;9.00;5.88;;;;;;;26.81;76.22;100154.38;4962956;28;20042;-75
2022/06/13 12:00:01;;;;;;;8.80;6.93;;;;;;;26.83;78.78;100144.59;4978371;28;20114;-70
2022/06/13 12:02:44;;;;;;;8.00;5.82;;;;;;;26.75;76.37;100144.84;4978340;28;20061;-70
2022/06/13 12:05:16;;;;;;;8.98;6.38;;;;;;;26.79;78.07;100148.25;4978881;28;20030;-69
2022/06/13 12:07:51;;;;;;;9.05;6.20;;;;;;;26.82;76.08;100145.53;4974447;28;20029;-69
2022/06/13 12:10:25;;;;;;;12.90;7.13;;;;;;;26.84;78.51;100148.09;4971722;28;20042;-66